sensor_id;sensor_type;location;lat;lon;timestamp;pressure;altitude;pressure_sealevel;temperature;humidity
59367;BME280;45163;47.690;11.770;2023-06-19T00:00:32;93080.63;;;18.95;89.92
59367;BME280;45163;47.690;11.770;2023-06-19T00:02:58;93075.69;;;19.10;89.74
59367;BME280;45163;47.690;11.770;2023-06-19T00:05:24;93073.69;;;19.11;89.90
59367;BME280;45163;47.690;11.770;2023-06-19T00:07:50;93068.59;;;19.04;88.90
59367;BME280;45163;47.690;11.770;2023-06-19T00:10:17;93070.13;;;19.05;89.67
59367;BME280;45163;47.690;11.770;2023-06-19T00:12:43;93073.28;;;18.86;89.74
59367;BME280;45163;47.690;11.770;2023-06-19T00:15:10;93074.38;;;19.00;88.29
59367;BME280;45163;47.690;11.770;2023-06-19T00:17:36;93077.13;;;19.00;87.17
59367;BME280;45163;47.690;11.770;2023-06-19T00:20:05;93074.66;;;19.08;86.29
59367;BME280;45163;47.690;11.770;2023-06-19T00:22:31;93079.69;;;19.09;86.19
59367;BME280;45163;47.690;11.770;2023-06-19T00:24:58;93078.16;;;19.03;88.47
59367;BME280;45163;47.690;11.770;2023-06-19T00:27:24;93072.22;;;18.78;90.62
59367;BME280;45163;47.690;11.770;2023-06-19T00:29:53;93079.25;;;18.74;89.72
59367;BME280;45163;47.690;11.770;2023-06-19T00:32:19;93075.75;;;18.79;89.89
59367;BME280;45163;47.690;11.770;2023-06-19T00:34:45;93080.00;;;18.74;90.40
59367;BME280;45163;47.690;11.770;2023-06-19T00:37:11;93076.69;;;18.70;91.34
59367;BME280;45163;47.690;11.770;2023-06-19T00:39:39;93082.44;;;18.66;90.40
59367;BME280;45163;47.690;11.770;2023-06-19T00:42:06;93080.38;;;18.61;90.77
59367;BME280;45163;47.690;11.770;2023-06-19T00:44:32;93079.63;;;18.61;91.83
59367;BME280;45163;47.690;11.770;2023-06-19T00:47:00;93080.38;;;18.61;92.25
59367;BME280;45163;47.690;11.770;2023-06-19T00:49:28;93079.31;;;18.53;93.08
59367;BME280;45163;47.690;11.770;2023-06-19T00:51:55;93087.38;;;18.57;92.89
59367;BME280;45163;47.690;11.770;2023-06-19T00:54:21;93083.09;;;18.56;92.31
59367;BME280;45163;47.690;11.770;2023-06-19T00:56:48;93084.41;;;18.60;92.55
59367;BME280;45163;47.690;11.770;2023-06-19T00:59:16;93085.94;;;18.67;92.13
59367;BME280;45163;47.690;11.770;2023-06-19T01:01:43;93083.19;;;18.67;91.49
59367;BME280;45163;47.690;11.770;2023-06-19T01:04:09;93078.50;;;18.73;90.61
59367;BME280;45163;47.690;11.770;2023-06-19T01:07:08;93083.28;;;18.78;90.67
59367;BME280;45163;47.690;11.770;2023-06-19T01:09:52;93081.31;;;18.84;89.93
59367;BME280;45163;47.690;11.770;2023-06-19T01:12:32;93080.59;;;18.89;89.84
59367;BME280;45163;47.690;11.770;2023-06-19T01:15:02;93088.16;;;18.95;89.67
59367;BME280;45163;47.690;11.770;2023-06-19T01:17:29;93089.94;;;18.98;89.42
59367;BME280;45163;47.690;11.770;2023-06-19T01:19:58;93086.91;;;18.96;89.61
59367;BME280;45163;47.690;11.770;2023-06-19T01:22:28;93080.41;;;18.99;89.44
59367;BME280;45163;47.690;11.770;2023-06-19T01:24:55;93079.88;;;18.95;90.72
59367;BME280;45163;47.690;11.770;2023-06-19T01:27:23;93071.81;;;18.97;91.25
59367;BME280;45163;47.690;11.770;2023-06-19T01:29:51;93076.84;;;18.92;89.87
59367;BME280;45163;47.690;11.770;2023-06-19T01:32:25;93077.03;;;18.83;89.67
59367;BME280;45163;47.690;11.770;2023-06-19T01:34:54;93073.50;;;18.83;90.35
59367;BME280;45163;47.690;11.770;2023-06-19T01:37:24;93077.53;;;18.82;90.63
59367;BME280;45163;47.690;11.770;2023-06-19T01:39:54;93080.25;;;18.76;91.86
59367;BME280;45163;47.690;11.770;2023-06-19T01:42:21;93079.28;;;18.79;92.26
59367;BME280;45163;47.690;11.770;2023-06-19T01:44:48;93077.41;;;18.65;93.34
59367;BME280;45163;47.690;11.770;2023-06-19T01:47:14;93084.00;;;18.41;94.29
59367;BME280;45163;47.690;11.770;2023-06-19T01:49:46;93081.09;;;18.25;96.39
59367;BME280;45163;47.690;11.770;2023-06-19T01:52:12;93086.94;;;18.32;95.94
59367;BME280;45163;47.690;11.770;2023-06-19T01:54:39;93078.47;;;18.41;96.81
59367;BME280;45163;47.690;11.770;2023-06-19T01:57:05;93079.22;;;18.42;96.24
59367;BME280;45163;47.690;11.770;2023-06-19T01:59:32;93082.22;;;18.38;95.79
59367;BME280;45163;47.690;11.770;2023-06-19T02:01:58;93081.41;;;18.32;96.31
59367;BME280;45163;47.690;11.770;2023-06-19T02:04:23;93075.47;;;18.39;95.07
59367;BME280;45163;47.690;11.770;2023-06-19T02:06:49;93076.66;;;18.33;92.58
59367;BME280;45163;47.690;11.770;2023-06-19T02:09:16;93078.97;;;18.40;93.67
59367;BME280;45163;47.690;11.770;2023-06-19T02:11:42;93083.59;;;18.54;93.46
59367;BME280;45163;47.690;11.770;2023-06-19T02:14:09;93085.94;;;18.67;91.00
59367;BME280;45163;47.690;11.770;2023-06-19T02:16:37;93077.88;;;18.63;91.79
59367;BME280;45163;47.690;11.770;2023-06-19T02:19:03;93080.25;;;18.76;91.58
59367;BME280;45163;47.690;11.770;2023-06-19T02:21:29;93089.03;;;18.75;92.65
59367;BME280;45163;47.690;11.770;2023-06-19T02:23:55;93085.00;;;18.70;93.16
59367;BME280;45163;47.690;11.770;2023-06-19T02:26:21;93084.94;;;18.64;93.62
59367;BME280;45163;47.690;11.770;2023-06-19T02:28:47;93076.81;;;18.55;95.19
59367;BME280;45163;47.690;11.770;2023-06-19T02:31:13;93079.75;;;18.46;96.21
59367;BME280;45163;47.690;11.770;2023-06-19T02:33:39;93084.50;;;18.40;95.78
59367;BME280;45163;47.690;11.770;2023-06-19T02:36:04;93090.03;;;18.40;95.51
59367;BME280;45163;47.690;11.770;2023-06-19T02:38:30;93088.28;;;18.42;96.22
59367;BME280;45163;47.690;11.770;2023-06-19T02:40:57;93098.13;;;18.49;96.19
59367;BME280;45163;47.690;11.770;2023-06-19T02:43:23;93098.63;;;18.48;95.77
59367;BME280;45163;47.690;11.770;2023-06-19T02:45:49;93096.34;;;18.46;96.17
59367;BME280;45163;47.690;11.770;2023-06-19T02:48:15;93099.06;;;18.40;96.63
59367;BME280;45163;47.690;11.770;2023-06-19T02:50:42;93098.78;;;18.38;97.95
59367;BME280;45163;47.690;11.770;2023-06-19T02:53:08;93100.22;;;18.28;96.51
59367;BME280;45163;47.690;11.770;2023-06-19T02:55:34;93099.25;;;18.31;96.27
59367;BME280;45163;47.690;11.770;2023-06-19T02:58:00;93102.44;;;18.24;96.34
59367;BME280;45163;47.690;11.770;2023-06-19T03:00:26;93102.47;;;18.30;96.75
59367;BME280;45163;47.690;11.770;2023-06-19T03:02:54;93110.84;;;18.35;96.18
59367;BME280;45163;47.690;11.770;2023-06-19T03:05:20;93106.28;;;18.32;95.40
59367;BME280;45163;47.690;11.770;2023-06-19T03:07:46;93106.75;;;18.31;94.71
59367;BME280;45163;47.690;11.770;2023-06-19T03:10:12;93113.09;;;18.37;95.12
59367;BME280;45163;47.690;11.770;2023-06-19T03:12:38;93110.34;;;18.37;94.54
59367;BME280;45163;47.690;11.770;2023-06-19T03:15:04;93117.44;;;18.44;95.05
59367;BME280;45163;47.690;11.770;2023-06-19T03:17:30;93120.25;;;18.49;95.13
59367;BME280;45163;47.690;11.770;2023-06-19T03:19:56;93126.53;;;18.50;93.67
59367;BME280;45163;47.690;11.770;2023-06-19T03:22:22;93126.56;;;18.55;93.63
59367;BME280;45163;47.690;11.770;2023-06-19T03:24:48;93129.81;;;18.54;94.01
59367;BME280;45163;47.690;11.770;2023-06-19T03:27:14;93130.53;;;18.49;95.19
59367;BME280;45163;47.690;11.770;2023-06-19T03:29:40;93132.50;;;18.42;95.10
59367;BME280;45163;47.690;11.770;2023-06-19T03:32:06;93136.50;;;18.41;95.32
59367;BME280;45163;47.690;11.770;2023-06-19T03:34:32;93139.22;;;18.36;95.96
59367;BME280;45163;47.690;11.770;2023-06-19T03:36:58;93143.00;;;18.38;96.60
59367;BME280;45163;47.690;11.770;2023-06-19T03:39:24;93144.75;;;18.36;95.29
59367;BME280;45163;47.690;11.770;2023-06-19T03:41:50;93149.34;;;18.45;94.76
59367;BME280;45163;47.690;11.770;2023-06-19T03:44:16;93145.56;;;18.42;95.18
59367;BME280;45163;47.690;11.770;2023-06-19T03:46:42;93148.84;;;18.46;95.55
59367;BME280;45163;47.690;11.770;2023-06-19T03:49:08;93148.50;;;18.33;95.81
59367;BME280;45163;47.690;11.770;2023-06-19T03:51:35;93155.91;;;18.47;96.09
59367;BME280;45163;47.690;11.770;2023-06-19T03:54:01;93154.91;;;18.50;96.89
59367;BME280;45163;47.690;11.770;2023-06-19T03:56:27;93156.72;;;18.53;95.73
59367;BME280;45163;47.690;11.770;2023-06-19T03:58:53;93162.78;;;18.57;95.60
59367;BME280;45163;47.690;11.770;2023-06-19T04:01:19;93155.50;;;18.60;96.13
59367;BME280;45163;47.690;11.770;2023-06-19T04:03:45;93164.72;;;18.51;97.94
59367;BME280;45163;47.690;11.770;2023-06-19T04:06:11;93157.47;;;18.54;98.82
59367;BME280;45163;47.690;11.770;2023-06-19T04:08:37;93159.72;;;18.55;97.82
59367;BME280;45163;47.690;11.770;2023-06-19T04:11:03;93163.53;;;18.58;95.35
59367;BME280;45163;47.690;11.770;2023-06-19T04:13:29;93166.47;;;18.75;95.43
59367;BME280;45163;47.690;11.770;2023-06-19T04:15:54;93167.78;;;18.85;94.72
59367;BME280;45163;47.690;11.770;2023-06-19T04:18:20;93168.41;;;19.00;92.89
59367;BME280;45163;47.690;11.770;2023-06-19T04:20:46;93165.50;;;19.15;91.70
59367;BME280;45163;47.690;11.770;2023-06-19T04:23:12;93167.09;;;19.27;91.62
59367;BME280;45163;47.690;11.770;2023-06-19T04:25:39;93170.72;;;19.45;90.13
59367;BME280;45163;47.690;11.770;2023-06-19T04:28:05;93178.28;;;19.50;87.76
59367;BME280;45163;47.690;11.770;2023-06-19T04:30:30;93169.75;;;19.59;87.65
59367;BME280;45163;47.690;11.770;2023-06-19T04:32:58;93181.66;;;19.65;90.02
59367;BME280;45163;47.690;11.770;2023-06-19T04:35:24;93185.19;;;19.65;90.18
59367;BME280;45163;47.690;11.770;2023-06-19T04:37:52;93184.44;;;19.65;90.75
59367;BME280;45163;47.690;11.770;2023-06-19T04:40:18;93194.78;;;19.76;91.29
59367;BME280;45163;47.690;11.770;2023-06-19T04:42:44;93189.75;;;19.74;91.52
59367;BME280;45163;47.690;11.770;2023-06-19T04:45:10;93198.56;;;19.73;91.25
59367;BME280;45163;47.690;11.770;2023-06-19T04:47:36;93197.03;;;19.66;92.67
59367;BME280;45163;47.690;11.770;2023-06-19T04:50:04;93200.78;;;19.63;92.42
59367;BME280;45163;47.690;11.770;2023-06-19T04:52:30;93207.63;;;19.73;92.61
59367;BME280;45163;47.690;11.770;2023-06-19T04:54:58;93201.09;;;19.76;93.20
59367;BME280;45163;47.690;11.770;2023-06-19T04:57:24;93203.31;;;19.67;94.04
59367;BME280;45163;47.690;11.770;2023-06-19T04:59:50;93205.84;;;19.70;94.27
59367;BME280;45163;47.690;11.770;2023-06-19T05:02:16;93212.38;;;19.67;93.75
59367;BME280;45163;47.690;11.770;2023-06-19T05:04:42;93207.88;;;19.75;94.99
59367;BME280;45163;47.690;11.770;2023-06-19T05:07:10;93210.69;;;19.81;94.18
59367;BME280;45163;47.690;11.770;2023-06-19T05:09:36;93206.59;;;19.65;92.34
59367;BME280;45163;47.690;11.770;2023-06-19T05:12:02;93206.16;;;19.83;90.04
59367;BME280;45163;47.690;11.770;2023-06-19T05:14:28;93216.78;;;19.96;88.95
59367;BME280;45163;47.690;11.770;2023-06-19T05:16:54;93224.34;;;19.96;88.58
59367;BME280;45163;47.690;11.770;2023-06-19T05:19:20;93220.09;;;20.06;89.67
59367;BME280;45163;47.690;11.770;2023-06-19T05:21:46;93222.69;;;20.15;90.50
59367;BME280;45163;47.690;11.770;2023-06-19T05:24:12;93226.72;;;20.25;90.66
59367;BME280;45163;47.690;11.770;2023-06-19T05:26:39;93229.75;;;20.27;90.06
59367;BME280;45163;47.690;11.770;2023-06-19T05:29:05;93221.97;;;20.43;90.21
59367;BME280;45163;47.690;11.770;2023-06-19T05:31:34;93228.06;;;20.52;90.19
59367;BME280;45163;47.690;11.770;2023-06-19T05:34:01;93228.63;;;20.62;88.68
59367;BME280;45163;47.690;11.770;2023-06-19T05:36:27;93237.22;;;20.75;88.34
59367;BME280;45163;47.690;11.770;2023-06-19T05:38:53;93235.16;;;20.59;87.82
59367;BME280;45163;47.690;11.770;2023-06-19T05:41:18;93247.03;;;20.65;87.86
59367;BME280;45163;47.690;11.770;2023-06-19T05:43:44;93258.78;;;20.43;90.98
59367;BME280;45163;47.690;11.770;2023-06-19T05:46:10;93264.63;;;20.51;92.40
59367;BME280;45163;47.690;11.770;2023-06-19T05:48:37;93253.81;;;20.58;91.33
59367;BME280;45163;47.690;11.770;2023-06-19T05:51:03;93264.69;;;20.62;89.27
59367;BME280;45163;47.690;11.770;2023-06-19T05:53:29;93266.47;;;20.76;87.16
59367;BME280;45163;47.690;11.770;2023-06-19T05:55:57;93267.00;;;21.03;86.87
59367;BME280;45163;47.690;11.770;2023-06-19T05:58:23;93263.72;;;21.27;85.38
59367;BME280;45163;47.690;11.770;2023-06-19T06:00:51;93276.13;;;21.54;83.37
59367;BME280;45163;47.690;11.770;2023-06-19T06:03:24;93275.59;;;21.72;80.66
59367;BME280;45163;47.690;11.770;2023-06-19T06:05:51;93278.84;;;21.87;80.25
59367;BME280;45163;47.690;11.770;2023-06-19T06:08:17;93288.97;;;21.91;82.62
59367;BME280;45163;47.690;11.770;2023-06-19T06:10:43;93277.34;;;21.86;83.71
59367;BME280;45163;47.690;11.770;2023-06-19T06:13:09;93282.41;;;21.71;86.32
59367;BME280;45163;47.690;11.770;2023-06-19T06:15:35;93280.81;;;22.21;83.53
59367;BME280;45163;47.690;11.770;2023-06-19T06:18:01;93278.91;;;22.51;81.58
59367;BME280;45163;47.690;11.770;2023-06-19T06:20:29;93284.91;;;22.67;78.05
59367;BME280;45163;47.690;11.770;2023-06-19T06:22:55;93285.91;;;22.69;79.00
59367;BME280;45163;47.690;11.770;2023-06-19T06:25:21;93287.81;;;23.68;76.50
59367;BME280;45163;47.690;11.770;2023-06-19T06:27:47;93289.69;;;24.33;73.60
59367;BME280;45163;47.690;11.770;2023-06-19T06:30:13;93282.25;;;24.42;72.13
59367;BME280;45163;47.690;11.770;2023-06-19T06:32:39;93282.16;;;23.44;77.60
59367;BME280;45163;47.690;11.770;2023-06-19T06:35:05;93279.97;;;24.16;79.87
59367;BME280;45163;47.690;11.770;2023-06-19T06:37:31;93290.25;;;25.07;70.49
59367;BME280;45163;47.690;11.770;2023-06-19T06:39:57;93284.91;;;25.28;66.07
59367;BME280;45163;47.690;11.770;2023-06-19T06:42:23;93293.47;;;25.17;65.03
59367;BME280;45163;47.690;11.770;2023-06-19T06:44:49;93288.69;;;25.31;68.57
59367;BME280;45163;47.690;11.770;2023-06-19T06:47:15;93293.28;;;25.28;67.96
59367;BME280;45163;47.690;11.770;2023-06-19T06:49:41;93295.28;;;25.33;66.40
59367;BME280;45163;47.690;11.770;2023-06-19T06:52:07;93298.06;;;25.33;69.67
59367;BME280;45163;47.690;11.770;2023-06-19T06:54:33;93297.91;;;25.26;69.35
59367;BME280;45163;47.690;11.770;2023-06-19T06:56:59;93301.09;;;25.49;68.71
59367;BME280;45163;47.690;11.770;2023-06-19T06:59:26;93309.06;;;25.07;69.23
59367;BME280;45163;47.690;11.770;2023-06-19T07:01:55;93304.72;;;25.12;69.88
59367;BME280;45163;47.690;11.770;2023-06-19T07:04:22;93301.22;;;25.24;71.91
59367;BME280;45163;47.690;11.770;2023-06-19T07:06:48;93311.78;;;25.31;70.82
59367;BME280;45163;47.690;11.770;2023-06-19T07:09:14;93299.88;;;25.63;69.00
59367;BME280;45163;47.690;11.770;2023-06-19T07:11:41;93319.66;;;25.84;69.07
59367;BME280;45163;47.690;11.770;2023-06-19T07:14:07;93314.50;;;25.88;63.41
59367;BME280;45163;47.690;11.770;2023-06-19T07:16:33;93327.81;;;25.82;62.10
59367;BME280;45163;47.690;11.770;2023-06-19T07:18:59;93326.28;;;26.40;59.48
59367;BME280;45163;47.690;11.770;2023-06-19T07:21:27;93330.72;;;25.90;58.54
59367;BME280;45163;47.690;11.770;2023-06-19T07:23:53;93324.25;;;25.30;61.09
59367;BME280;45163;47.690;11.770;2023-06-19T07:26:20;93325.94;;;25.71;57.58
59367;BME280;45163;47.690;11.770;2023-06-19T07:28:46;93331.81;;;25.36;55.57
59367;BME280;45163;47.690;11.770;2023-06-19T07:31:12;93327.59;;;26.39;54.37
59367;BME280;45163;47.690;11.770;2023-06-19T07:33:38;93340.31;;;26.53;53.56
59367;BME280;45163;47.690;11.770;2023-06-19T07:36:05;93333.84;;;26.58;55.01
59367;BME280;45163;47.690;11.770;2023-06-19T07:38:31;93339.22;;;26.82;51.63
59367;BME280;45163;47.690;11.770;2023-06-19T07:40:58;93328.25;;;26.71;51.71
59367;BME280;45163;47.690;11.770;2023-06-19T07:43:24;93331.47;;;26.75;51.31
59367;BME280;45163;47.690;11.770;2023-06-19T07:45:50;93338.75;;;26.92;52.44
59367;BME280;45163;47.690;11.770;2023-06-19T07:48:16;93330.47;;;26.99;51.78
59367;BME280;45163;47.690;11.770;2023-06-19T07:50:42;93325.25;;;27.64;49.41
59367;BME280;45163;47.690;11.770;2023-06-19T07:53:08;93328.16;;;27.93;48.68
59367;BME280;45163;47.690;11.770;2023-06-19T07:55:34;93320.03;;;27.68;47.35
59367;BME280;45163;47.690;11.770;2023-06-19T07:58:01;93325.59;;;28.81;45.35
59367;BME280;45163;47.690;11.770;2023-06-19T08:00:27;93327.38;;;29.35;42.42
59367;BME280;45163;47.690;11.770;2023-06-19T08:02:53;93314.38;;;29.24;41.19
59367;BME280;45163;47.690;11.770;2023-06-19T08:05:19;93325.09;;;30.31;40.25
59367;BME280;45163;47.690;11.770;2023-06-19T08:07:45;93317.47;;;29.49;41.19
59367;BME280;45163;47.690;11.770;2023-06-19T08:10:11;93316.19;;;29.58;40.91
59367;BME280;45163;47.690;11.770;2023-06-19T08:12:37;93320.97;;;30.24;39.29
59367;BME280;45163;47.690;11.770;2023-06-19T08:15:03;93317.91;;;29.10;40.70
59367;BME280;45163;47.690;11.770;2023-06-19T08:17:29;93319.28;;;28.59;41.94
59367;BME280;45163;47.690;11.770;2023-06-19T08:19:55;93318.16;;;28.34;42.91
59367;BME280;45163;47.690;11.770;2023-06-19T08:22:21;93318.28;;;27.99;43.95
59367;BME280;45163;47.690;11.770;2023-06-19T08:24:47;93316.16;;;27.92;44.69
59367;BME280;45163;47.690;11.770;2023-06-19T08:27:13;93318.88;;;28.55;43.60
59367;BME280;45163;47.690;11.770;2023-06-19T08:29:39;93314.56;;;29.93;40.33
59367;BME280;45163;47.690;11.770;2023-06-19T08:32:05;93312.47;;;29.78;38.78
59367;BME280;45163;47.690;11.770;2023-06-19T08:34:33;93305.91;;;30.75;37.95
59367;BME280;45163;47.690;11.770;2023-06-19T08:36:59;93304.38;;;32.03;36.71
59367;BME280;45163;47.690;11.770;2023-06-19T08:39:25;93299.56;;;32.98;33.53
59367;BME280;45163;47.690;11.770;2023-06-19T08:41:51;93296.75;;;32.98;32.57
59367;BME280;45163;47.690;11.770;2023-06-19T08:44:19;93288.34;;;32.90;32.52
59367;BME280;45163;47.690;11.770;2023-06-19T08:46:45;93283.44;;;32.73;32.44
59367;BME280;45163;47.690;11.770;2023-06-19T08:49:11;93289.69;;;34.05;32.05
59367;BME280;45163;47.690;11.770;2023-06-19T08:51:37;93290.88;;;33.31;30.66
59367;BME280;45163;47.690;11.770;2023-06-19T08:54:05;93288.31;;;33.97;30.24
59367;BME280;45163;47.690;11.770;2023-06-19T08:56:32;93285.16;;;33.21;31.10
59367;BME280;45163;47.690;11.770;2023-06-19T08:59:09;93290.22;;;32.53;30.94
59367;BME280;45163;47.690;11.770;2023-06-19T09:01:36;93286.31;;;31.73;33.35
59367;BME280;45163;47.690;11.770;2023-06-19T09:04:10;93287.00;;;32.57;32.72
59367;BME280;45163;47.690;11.770;2023-06-19T09:06:51;93290.97;;;33.23;31.22
59367;BME280;45163;47.690;11.770;2023-06-19T09:09:22;93283.31;;;32.81;31.18
59367;BME280;45163;47.690;11.770;2023-06-19T09:12:03;93280.75;;;33.28;31.10
59367;BME280;45163;47.690;11.770;2023-06-19T09:17:06;93279.84;;;33.25;30.35
59367;BME280;45163;47.690;11.770;2023-06-19T09:19:33;93284.06;;;33.78;28.67
59367;BME280;45163;47.690;11.770;2023-06-19T09:22:04;93275.59;;;33.16;30.48
59367;BME280;45163;47.690;11.770;2023-06-19T09:24:39;93282.56;;;33.50;30.64
59367;BME280;45163;47.690;11.770;2023-06-19T09:27:13;93277.56;;;34.32;29.65
59367;BME280;45163;47.690;11.770;2023-06-19T09:29:44;93283.72;;;34.01;29.29
59367;BME280;45163;47.690;11.770;2023-06-19T09:32:20;93286.88;;;31.39;33.70
59367;BME280;45163;47.690;11.770;2023-06-19T09:34:47;93283.88;;;31.37;34.80
59367;BME280;45163;47.690;11.770;2023-06-19T09:37:15;93280.59;;;29.84;37.21
59367;BME280;45163;47.690;11.770;2023-06-19T09:39:41;93268.38;;;30.35;36.79
59367;BME280;45163;47.690;11.770;2023-06-19T09:42:09;93279.78;;;31.63;34.44
59367;BME280;45163;47.690;11.770;2023-06-19T09:44:40;93270.81;;;32.32;33.25
59367;BME280;45163;47.690;11.770;2023-06-19T09:47:15;93264.44;;;33.18;30.91
59367;BME280;45163;47.690;11.770;2023-06-19T09:49:48;93267.16;;;32.99;30.75
59367;BME280;45163;47.690;11.770;2023-06-19T09:52:15;93263.47;;;34.05;30.83
59367;BME280;45163;47.690;11.770;2023-06-19T09:54:42;93266.97;;;33.59;29.81
59367;BME280;45163;47.690;11.770;2023-06-19T09:57:10;93261.22;;;32.53;31.23
59367;BME280;45163;47.690;11.770;2023-06-19T09:59:38;93255.91;;;33.09;31.04
59367;BME280;45163;47.690;11.770;2023-06-19T10:02:06;93259.28;;;35.49;27.82
59367;BME280;45163;47.690;11.770;2023-06-19T10:04:46;93256.03;;;33.45;29.91
59367;BME280;45163;47.690;11.770;2023-06-19T10:07:22;93252.44;;;35.33;26.88
59367;BME280;45163;47.690;11.770;2023-06-19T10:10:25;93251.88;;;33.56;28.94
59367;BME280;45163;47.690;11.770;2023-06-19T10:12:58;93241.16;;;34.28;28.84
59367;BME280;45163;47.690;11.770;2023-06-19T10:15:26;93250.56;;;33.94;29.61
59367;BME280;45163;47.690;11.770;2023-06-19T10:18:00;93245.72;;;34.89;28.42
59367;BME280;45163;47.690;11.770;2023-06-19T10:20:37;93240.06;;;35.88;27.74
59367;BME280;45163;47.690;11.770;2023-06-19T10:23:20;93242.88;;;35.38;27.20
59367;BME280;45163;47.690;11.770;2023-06-19T10:28:22;93236.31;;;34.58;27.88
59367;BME280;45163;47.690;11.770;2023-06-19T10:30:56;93231.59;;;36.10;25.65
59367;BME280;45163;47.690;11.770;2023-06-19T10:33:24;93234.53;;;34.82;27.74
59367;BME280;45163;47.690;11.770;2023-06-19T10:35:51;93233.44;;;36.05;26.36
59367;BME280;45163;47.690;11.770;2023-06-19T10:38:17;93233.69;;;36.40;25.88
59367;BME280;45163;47.690;11.770;2023-06-19T10:40:44;93220.34;;;37.07;24.89
59367;BME280;45163;47.690;11.770;2023-06-19T10:43:11;93227.41;;;37.39;24.37
59367;BME280;45163;47.690;11.770;2023-06-19T10:45:37;93227.69;;;36.46;27.23
59367;BME280;45163;47.690;11.770;2023-06-19T10:48:04;93220.91;;;36.73;25.70
59367;BME280;45163;47.690;11.770;2023-06-19T10:50:42;93217.88;;;36.28;25.75
59367;BME280;45163;47.690;11.770;2023-06-19T10:53:08;93208.78;;;36.94;24.68
59367;BME280;45163;47.690;11.770;2023-06-19T10:55:34;93223.03;;;36.20;25.66
59367;BME280;45163;47.690;11.770;2023-06-19T10:58:00;93210.91;;;35.88;26.11
59367;BME280;45163;47.690;11.770;2023-06-19T11:02:55;93211.19;;;34.35;28.69
59367;BME280;45163;47.690;11.770;2023-06-19T11:05:23;93209.38;;;36.92;25.48
59367;BME280;45163;47.690;11.770;2023-06-19T11:10:20;93205.31;;;36.31;26.41
59367;BME280;45163;47.690;11.770;2023-06-19T11:12:46;93203.72;;;35.36;27.25
59367;BME280;45163;47.690;11.770;2023-06-19T11:15:12;93203.28;;;36.86;25.06
59367;BME280;45163;47.690;11.770;2023-06-19T11:17:38;93195.47;;;37.41;24.29
59367;BME280;45163;47.690;11.770;2023-06-19T11:20:09;93190.81;;;37.24;23.95
59367;BME280;45163;47.690;11.770;2023-06-19T11:22:39;93187.56;;;35.49;25.54
59367;BME280;45163;47.690;11.770;2023-06-19T11:25:07;93193.41;;;36.23;25.61
59367;BME280;45163;47.690;11.770;2023-06-19T11:27:37;93174.59;;;36.60;25.35
59367;BME280;45163;47.690;11.770;2023-06-19T11:30:04;93171.88;;;37.74;22.90
59367;BME280;45163;47.690;11.770;2023-06-19T11:32:34;93174.78;;;36.31;24.22
59367;BME280;45163;47.690;11.770;2023-06-19T11:35:08;93168.66;;;35.73;24.90
59367;BME280;45163;47.690;11.770;2023-06-19T11:37:35;93157.13;;;36.33;24.48
59367;BME280;45163;47.690;11.770;2023-06-19T11:40:02;93168.66;;;36.89;24.42
59367;BME280;45163;47.690;11.770;2023-06-19T11:42:48;93158.50;;;35.70;24.53
59367;BME280;45163;47.690;11.770;2023-06-19T11:45:15;93151.69;;;34.74;26.27
59367;BME280;45163;47.690;11.770;2023-06-19T11:47:43;93144.38;;;36.77;24.52
59367;BME280;45163;47.690;11.770;2023-06-19T11:50:09;93152.91;;;35.40;25.05
59367;BME280;45163;47.690;11.770;2023-06-19T11:52:35;93154.50;;;34.93;26.54
59367;BME280;45163;47.690;11.770;2023-06-19T11:55:02;93149.34;;;37.09;23.74
59367;BME280;45163;47.690;11.770;2023-06-19T11:57:28;93150.13;;;36.03;24.80
59367;BME280;45163;47.690;11.770;2023-06-19T11:59:54;93147.50;;;35.85;25.25
59367;BME280;45163;47.690;11.770;2023-06-19T12:02:21;93139.19;;;37.06;23.63
59367;BME280;45163;47.690;11.770;2023-06-19T12:04:47;93144.75;;;36.71;24.67
59367;BME280;45163;47.690;11.770;2023-06-19T12:07:13;93134.88;;;37.17;23.65
59367;BME280;45163;47.690;11.770;2023-06-19T12:09:39;93126.69;;;37.11;23.45
59367;BME280;45163;47.690;11.770;2023-06-19T12:12:06;93134.88;;;37.29;23.15
59367;BME280;45163;47.690;11.770;2023-06-19T12:14:32;93129.53;;;36.78;23.85
59367;BME280;45163;47.690;11.770;2023-06-19T12:16:58;93132.75;;;37.62;23.56
59367;BME280;45163;47.690;11.770;2023-06-19T12:19:25;93133.72;;;38.02;22.82
59367;BME280;45163;47.690;11.770;2023-06-19T12:21:51;93136.47;;;37.88;23.41
59367;BME280;45163;47.690;11.770;2023-06-19T12:24:17;93124.75;;;37.26;23.80
59367;BME280;45163;47.690;11.770;2023-06-19T12:26:43;93119.47;;;37.55;23.58
59367;BME280;45163;47.690;11.770;2023-06-19T12:29:09;93114.19;;;36.72;24.30
59367;BME280;45163;47.690;11.770;2023-06-19T12:31:35;93113.91;;;35.51;25.32
59367;BME280;45163;47.690;11.770;2023-06-19T12:34:03;93113.63;;;34.77;26.90
59367;BME280;45163;47.690;11.770;2023-06-19T12:36:29;93119.78;;;34.63;26.71
59367;BME280;45163;47.690;11.770;2023-06-19T12:38:58;93112.69;;;33.87;27.59
59367;BME280;45163;47.690;11.770;2023-06-19T12:41:24;93123.50;;;32.53;28.89
59367;BME280;45163;47.690;11.770;2023-06-19T12:43:50;93123.16;;;32.32;30.18
59367;BME280;45163;47.690;11.770;2023-06-19T12:46:16;93116.75;;;32.31;29.98
59367;BME280;45163;47.690;11.770;2023-06-19T12:48:42;93110.19;;;32.29;30.09
59367;BME280;45163;47.690;11.770;2023-06-19T12:51:08;93103.38;;;33.20;29.17
59367;BME280;45163;47.690;11.770;2023-06-19T12:53:34;93110.06;;;34.37;27.32
59367;BME280;45163;47.690;11.770;2023-06-19T12:56:00;93109.91;;;34.64;27.76
59367;BME280;45163;47.690;11.770;2023-06-19T12:58:26;93108.09;;;35.80;26.80
59367;BME280;45163;47.690;11.770;2023-06-19T13:00:53;93118.41;;;35.03;26.78